Time;durP1;ratioP1;P1;durP2;ratioP2;P2;SDS_P1;SDS_P2;PMS_P1;PMS_P2;Temp;Humidity;BMP_temperature;BMP_pressure;BME280_temperature;BME280_humidity;BME280_pressure;Samples;Min_cycle;Max_cycle;Signal;HPM_P1;HPM_P2
2022/01/14 00:01:41;;;;;;;61.58;26.42;;;6.10;99.90;;;;;;5084084;27;20440;-67
2022/01/14 00:04:06;;;;;;;74.57;28.23;;;6.10;99.90;;;;;;5117791;27;20080;-66
2022/01/14 00:06:32;;;;;;;74.40;29.25;;;6.10;99.90;;;;;;5134871;27;20035;-66
2022/01/14 00:09:06;;;;;;;72.13;27.10;;;6.10;99.90;;;;;;5137954;27;20363;-66
2022/01/14 00:11:36;;;;;;;95.13;30.98;;;6.10;99.90;;;;;;5138779;27;20035;-67
2022/01/14 00:16:31;;;;;;;80.03;30.00;;;6.00;99.90;;;;;;5121250;27;20365;-65
2022/01/14 00:18:59;;;;;;;78.38;30.25;;;5.90;99.90;;;;;;5117168;27;20051;-65
2022/01/14 00:21:26;;;;;;;70.95;28.50;;;5.80;99.90;;;;;;5135626;27;20054;-65
2022/01/14 00:24:04;;;;;;;73.80;27.05;;;5.90;99.90;;;;;;5100520;27;20588;-69
2022/01/14 00:32:03;;;;;;;79.57;30.38;;;5.80;99.90;;;;;;5137704;27;20187;-66
2022/01/14 00:34:28;;;;;;;77.05;28.48;;;5.80;99.90;;;;;;5138008;27;20053;-67
2022/01/14 00:36:54;;;;;;;74.32;27.67;;;5.90;99.90;;;;;;5117810;27;20035;-65
2022/01/14 00:39:20;;;;;;;70.88;28.13;;;5.90;99.90;;;;;;5116804;27;20121;-64
2022/01/14 00:41:45;;;;;;;76.00;28.58;;;5.80;99.90;;;;;;5117042;27;20047;-65
2022/01/14 00:44:16;;;;;;;75.57;30.27;;;5.90;99.90;;;;;;5116962;27;20039;-65
2022/01/14 00:46:45;;;;;;;80.45;29.77;;;5.90;99.90;;;;;;5117473;27;20070;-66
2022/01/14 00:49:12;;;;;;;87.32;28.65;;;5.80;99.90;;;;;;5137372;27;20062;-66
2022/01/14 00:51:37;;;;;;;91.10;29.95;;;5.80;99.90;;;;;;5138103;27;20054;-66
2022/01/14 00:54:06;;;;;;;86.28;31.63;;;5.80;99.90;;;;;;5137830;27;20030;-66
2022/01/14 00:56:45;;;;;;;79.82;27.45;;;5.80;99.90;;;;;;5138866;27;20360;-65
2022/01/14 00:59:14;;;;;;;87.57;29.65;;;5.80;99.90;;;;;;5116730;27;20039;-66
2022/01/14 01:02:01;;;;;;;82.40;29.35;;;5.80;99.90;;;;;;5116578;27;20392;-66
2022/01/14 01:04:37;;;;;;;89.97;31.00;;;5.80;99.90;;;;;;5117079;27;20117;-67
2022/01/14 01:07:06;;;;;;;83.40;30.02;;;5.80;99.90;;;;;;5136920;27;20066;-67
2022/01/14 01:09:37;;;;;;;84.63;29.48;;;5.80;99.90;;;;;;5137294;27;20030;-66
2022/01/14 01:14:47;;;;;;;93.65;30.10;;;5.70;99.90;;;;;;5138466;27;20428;-65
2022/01/14 01:17:13;;;;;;;81.70;28.83;;;5.70;99.90;;;;;;5076160;28;20052;-67
2022/01/14 01:19:39;;;;;;;70.95;26.85;;;5.80;99.90;;;;;;5092347;28;20075;-66
2022/01/14 01:22:05;;;;;;;74.70;26.63;;;5.80;99.90;;;;;;5093353;28;20606;-65
2022/01/14 01:24:31;;;;;;;75.35;27.60;;;5.80;99.90;;;;;;5093760;28;20032;-67
2022/01/14 01:26:57;;;;;;;81.93;25.98;;;5.80;99.90;;;;;;5112563;28;20118;-66
2022/01/14 01:31:52;;;;;;;78.63;25.63;;;5.80;99.90;;;;;;5112943;28;20063;-66
2022/01/14 01:34:25;;;;;;;61.50;23.30;;;5.90;99.90;;;;;;5113795;28;20027;-65
2022/01/14 01:36:54;;;;;;;61.35;22.90;;;5.90;99.90;;;;;;5111717;28;20118;-66
2022/01/14 01:39:25;;;;;;;59.05;23.40;;;5.90;99.90;;;;;;5112315;28;20136;-65
2022/01/14 01:41:55;;;;;;;51.53;21.63;;;5.90;99.90;;;;;;5095779;28;20040;-65
2022/01/14 01:44:23;;;;;;;45.80;19.85;;;5.90;99.90;;;;;;5114021;28;20050;-65
2022/01/14 01:46:50;;;;;;;48.17;20.52;;;5.90;99.90;;;;;;5094160;28;20047;-66
2022/01/14 01:49:20;;;;;;;36.05;17.15;;;6.00;99.90;;;;;;5093058;28;20044;-67
2022/01/14 01:51:47;;;;;;;43.30;18.73;;;6.00;99.90;;;;;;5092430;28;20072;-66
2022/01/14 01:54:15;;;;;;;44.13;18.48;;;6.00;99.90;;;;;;5092069;28;20040;-66
2022/01/14 01:56:41;;;;;;;41.72;19.20;;;5.90;99.90;;;;;;5109174;28;20148;-66
2022/01/14 01:59:09;;;;;;;46.67;20.77;;;6.00;99.90;;;;;;5113254;28;20066;-66
2022/01/14 02:01:38;;;;;;;41.78;19.65;;;6.00;99.90;;;;;;5118131;28;20394;-66
2022/01/14 02:04:04;;;;;;;48.88;18.88;;;5.90;99.90;;;;;;5083207;28;20075;-66
2022/01/14 02:06:31;;;;;;;41.55;18.02;;;5.90;99.90;;;;;;5101183;28;20043;-65
2022/01/14 02:08:57;;;;;;;47.70;19.63;;;6.00;99.90;;;;;;5078999;28;20172;-67
2022/01/14 02:11:22;;;;;;;47.58;19.52;;;5.90;99.90;;;;;;5096478;28;20039;-65
2022/01/14 02:13:50;;;;;;;57.42;21.08;;;5.90;99.90;;;;;;5096194;28;20051;-65
2022/01/14 02:16:20;;;;;;;53.92;21.63;;;6.00;99.90;;;;;;5108220;28;20102;-66
2022/01/14 02:24:21;;;;;;;53.08;21.83;;;6.00;99.90;;;;;;5117315;28;20358;-66
2022/01/14 02:26:52;;;;;;;52.38;21.20;;;5.90;99.90;;;;;;5133930;27;20047;-66
2022/01/14 02:29:19;;;;;;;58.20;21.80;;;5.90;99.90;;;;;;5136364;27;20046;-66
2022/01/14 02:31:46;;;;;;;50.90;20.88;;;5.90;99.90;;;;;;5136410;27;20035;-66
2022/01/14 02:34:13;;;;;;;51.22;21.27;;;5.90;99.90;;;;;;5136792;27;20400;-66
2022/01/14 02:36:44;;;;;;;49.30;21.42;;;5.90;99.90;;;;;;5102914;28;20040;-66
2022/01/14 02:39:11;;;;;;;52.92;21.90;;;5.90;99.90;;;;;;5115972;28;20168;-65
2022/01/14 02:41:40;;;;;;;54.00;20.90;;;5.90;99.90;;;;;;5115920;28;20058;-66
2022/01/14 02:44:08;;;;;;;52.22;21.50;;;5.90;99.90;;;;;;5115973;28;20051;-66
2022/01/14 02:46:39;;;;;;;58.58;22.88;;;5.90;99.90;;;;;;5131191;27;20456;-66
2022/01/14 02:49:05;;;;;;;69.47;25.27;;;5.90;99.90;;;;;;5135889;27;20383;-66
2022/01/14 02:51:32;;;;;;;64.20;23.83;;;5.80;99.90;;;;;;5137304;27;20177;-66
2022/01/14 02:54:11;;;;;;;76.88;26.15;;;5.90;99.90;;;;;;5136355;27;20478;-66
2022/01/14 02:56:38;;;;;;;62.03;24.48;;;5.90;99.90;;;;;;5103277;28;20039;-65
2022/01/14 02:59:07;;;;;;;79.32;24.58;;;5.90;99.90;;;;;;5115795;28;20461;-66
2022/01/14 03:01:34;;;;;;;65.35;23.13;;;5.90;99.90;;;;;;5116695;28;20422;-67
2022/01/14 03:04:03;;;;;;;70.82;24.00;;;5.90;99.90;;;;;;5115932;28;20039;-66
2022/01/14 03:06:29;;;;;;;65.70;23.52;;;5.80;99.90;;;;;;5099359;28;20122;-66
2022/01/14 03:08:56;;;;;;;66.63;23.77;;;5.70;99.90;;;;;;5116354;28;20538;-65
2022/01/14 03:11:31;;;;;;;58.83;22.33;;;5.80;99.90;;;;;;5098296;28;20035;-66
2022/01/14 03:13:57;;;;;;;;;;;5.80;99.90;;;;;;5116233;28;20051;-65
2022/01/14 03:16:24;;;;;;;47.75;20.80;;;5.70;99.90;;;;;;5111975;27;19919;-66
2022/01/14 03:18:53;;;;;;;64.20;20.80;;;5.80;99.90;;;;;;5118403;27;20122;-66
2022/01/14 03:21:28;;;;;;;56.83;20.73;;;5.80;99.90;;;;;;5136704;27;20070;-66
2022/01/14 03:24:16;;;;;;;;;;;5.80;99.90;;;;;;5119398;27;20085;-66
2022/01/14 03:26:41;;;;;;;46.78;18.55;;;5.70;99.90;;;;;;5119120;27;20298;-66
2022/01/14 03:29:06;;;;;;;58.63;18.80;;;5.70;99.90;;;;;;5114612;28;20043;-66
2022/01/14 03:31:32;;;;;;;57.55;20.60;;;5.70;99.90;;;;;;5115725;28;20047;-67
2022/01/14 03:33:57;;;;;;;56.15;19.83;;;5.70;99.90;;;;;;5115310;28;20483;-66
2022/01/14 03:36:23;;;;;;;70.47;22.65;;;5.60;99.90;;;;;;5129535;27;20123;-66
2022/01/14 03:38:49;;;;;;;57.25;20.15;;;5.60;99.90;;;;;;5135211;27;20078;-66
2022/01/14 03:41:14;;;;;;;73.50;23.00;;;5.60;99.90;;;;;;5135587;27;20035;-66
2022/01/14 03:43:41;;;;;;;61.58;22.88;;;5.60;99.90;;;;;;5135311;27;20096;-66
2022/01/14 03:46:07;;;;;;;68.28;23.50;;;5.60;99.90;;;;;;5124031;27;20397;-66
2022/01/14 03:48:33;;;;;;;68.38;24.27;;;5.60;99.90;;;;;;5114472;28;20050;-64
2022/01/14 03:50:58;;;;;;;68.88;23.42;;;5.60;99.90;;;;;;5114961;28;20039;-66
2022/01/14 03:53:24;;;;;;;71.97;24.77;;;5.70;99.90;;;;;;5114538;28;20105;-66
2022/01/14 03:55:50;;;;;;;71.13;24.13;;;5.60;99.90;;;;;;5123254;27;20039;-66
2022/01/14 03:58:16;;;;;;;79.55;26.50;;;5.60;99.90;;;;;;5135047;27;20039;-66
2022/01/14 04:00:41;;;;;;;79.22;25.90;;;5.60;99.90;;;;;;5134686;27;20031;-66
2022/01/14 04:03:08;;;;;;;81.68;25.80;;;5.60;99.90;;;;;;5135126;27;20046;-66
2022/01/14 04:05:34;;;;;;;91.00;27.20;;;5.60;99.90;;;;;;5134209;27;20104;-66
2022/01/14 04:08:01;;;;;;;70.97;25.17;;;5.60;99.90;;;;;;5135124;27;20039;-66
2022/01/14 04:10:27;;;;;;;84.55;27.52;;;5.60;99.90;;;;;;5135868;27;20066;-67
2022/01/14 04:13:03;;;;;;;72.60;26.10;;;5.60;99.90;;;;;;5134912;27;20071;-67
2022/01/14 04:15:37;;;;;;;83.93;26.77;;;5.60;99.90;;;;;;5140142;27;20047;-66
2022/01/14 04:18:07;;;;;;;84.00;26.85;;;5.50;99.90;;;;;;5138388;27;20110;-67
2022/01/14 04:20:35;;;;;;;57.15;23.35;;;5.60;99.90;;;;;;5121649;27;20035;-66
2022/01/14 04:23:00;;;;;;;61.80;23.25;;;5.50;99.90;;;;;;5138204;27;20042;-67
2022/01/14 04:25:26;;;;;;;56.53;22.88;;;5.50;99.90;;;;;;5137370;27;20412;-67
2022/01/14 04:27:52;;;;;;;58.67;23.70;;;5.50;99.90;;;;;;5138011;27;20367;-67
2022/01/14 04:30:18;;;;;;;58.28;23.77;;;5.50;99.90;;;;;;5138027;27;20042;-66
2022/01/14 04:32:44;;;;;;;72.03;24.40;;;5.60;99.90;;;;;;5138522;27;20030;-66
2022/01/14 04:35:10;;;;;;;66.70;21.48;;;5.50;99.90;;;;;;5134156;27;20413;-65
2022/01/14 04:37:36;;;;;;;61.47;21.48;;;5.50;99.90;;;;;;5100103;27;20039;-66
2022/01/14 04:40:03;;;;;;;57.58;20.83;;;5.60;99.90;;;;;;5116787;27;20096;-66
2022/01/14 04:42:29;;;;;;;51.50;20.35;;;5.50;99.90;;;;;;5117094;27;20109;-66
2022/01/14 04:44:56;;;;;;;54.83;21.80;;;5.60;99.90;;;;;;5118201;27;20062;-66
2022/01/14 04:47:44;;;;;;;69.10;22.30;;;5.60;99.90;;;;;;5100011;27;20360;-66
2022/01/14 04:50:17;;;;;;;60.35;20.80;;;5.60;99.90;;;;;;5111278;27;20463;-66
2022/01/14 04:52:45;;;;;;;59.85;22.27;;;5.50;99.90;;;;;;5117244;27;20082;-66
2022/01/14 04:55:12;;;;;;;57.15;20.63;;;5.50;99.90;;;;;;5151821;27;20026;-67
2022/01/14 04:57:41;;;;;;;52.42;19.55;;;5.60;99.90;;;;;;5134020;27;20042;-66
2022/01/14 05:00:12;;;;;;;53.00;20.33;;;5.60;99.90;;;;;;5133812;27;20046;-68
2022/01/14 05:02:39;;;;;;;52.80;21.17;;;5.60;99.90;;;;;;5119797;27;20415;-66
2022/01/14 05:05:09;;;;;;;54.95;20.92;;;5.60;99.90;;;;;;5136080;27;20038;-67
2022/01/14 05:07:36;;;;;;;66.78;21.40;;;5.60;99.90;;;;;;5154970;27;20049;-66
2022/01/14 05:12:31;;;;;;;57.35;23.17;;;5.60;99.90;;;;;;5137293;27;20319;-66
2022/01/14 05:14:57;;;;;;;54.30;20.58;;;5.60;99.90;;;;;;5136049;27;20139;-67
2022/01/14 05:17:23;;;;;;;57.45;21.13;;;5.60;99.90;;;;;;5154998;27;20092;-66
2022/01/14 05:19:49;;;;;;;54.83;21.25;;;5.60;99.90;;;;;;5136857;27;20095;-66
2022/01/14 05:22:15;;;;;;;55.05;20.70;;;5.60;99.90;;;;;;5155612;27;20041;-66
2022/01/14 05:24:41;;;;;;;58.22;21.42;;;5.70;99.90;;;;;;5155411;27;20034;-66
2022/01/14 05:27:07;;;;;;;62.25;20.85;;;5.70;99.90;;;;;;5117336;27;20035;-65
2022/01/14 05:29:32;;;;;;;56.67;20.10;;;5.70;99.90;;;;;;5116057;27;20071;-66
2022/01/14 05:32:03;;;;;;;55.63;21.25;;;5.70;99.90;;;;;;5116238;27;20074;-67
2022/01/14 05:34:34;;;;;;;57.83;21.67;;;5.70;99.90;;;;;;5115269;27;20430;-67
2022/01/14 05:37:02;;;;;;;48.10;20.17;;;5.70;99.90;;;;;;5134054;27;20041;-65
2022/01/14 05:39:27;;;;;;;57.70;21.02;;;5.70;99.90;;;;;;5154728;27;20046;-67
2022/01/14 05:41:55;;;;;;;51.85;20.90;;;5.70;99.90;;;;;;5155207;27;20355;-67
2022/01/14 05:44:26;;;;;;;51.38;21.25;;;5.70;99.90;;;;;;5136606;27;20035;-67
2022/01/14 05:46:53;;;;;;;50.28;21.92;;;5.70;99.90;;;;;;5137780;27;20110;-66
2022/01/14 05:49:18;;;;;;;54.75;20.90;;;5.70;99.90;;;;;;5115833;28;20040;-66
2022/01/14 05:51:45;;;;;;;54.10;20.70;;;5.70;99.90;;;;;;5130377;27;20045;-66
2022/01/14 05:54:13;;;;;;;55.08;21.17;;;5.70;99.90;;;;;;5136091;27;20038;-65
2022/01/14 05:56:39;;;;;;;44.85;20.15;;;5.70;99.90;;;;;;5150991;27;20027;-66
2022/01/14 05:59:04;;;;;;;51.83;20.85;;;5.70;99.90;;;;;;5132395;27;20027;-67
2022/01/14 06:01:30;;;;;;;51.40;20.67;;;5.70;99.90;;;;;;5135701;27;20122;-66
2022/01/14 06:04:00;;;;;;;43.88;21.15;;;5.70;99.90;;;;;;5116163;27;20373;-66
2022/01/14 06:06:26;;;;;;;43.25;20.73;;;5.70;99.90;;;;;;5117795;27;20041;-66
2022/01/14 06:08:52;;;;;;;47.47;20.42;;;5.70;99.90;;;;;;5135492;27;20038;-66
2022/01/14 06:11:19;;;;;;;53.08;20.83;;;5.80;99.90;;;;;;5135492;27;20049;-67
2022/01/14 06:13:45;;;;;;;42.67;19.52;;;5.70;99.90;;;;;;5119236;27;20111;-68
2022/01/14 06:16:11;;;;;;;51.53;22.17;;;5.70;99.90;;;;;;5133785;27;20050;-68
2022/01/14 06:18:37;;;;;;;51.92;21.70;;;5.80;99.90;;;;;;5135864;27;20066;-67
2022/01/14 06:21:04;;;;;;;52.78;21.92;;;5.70;99.90;;;;;;5115618;27;20092;-67
2022/01/14 06:23:30;;;;;;;51.00;21.45;;;5.80;99.90;;;;;;5135776;27;20130;-67
2022/01/14 06:25:56;;;;;;;50.95;22.45;;;5.80;99.90;;;;;;5117504;27;20069;-67
2022/01/14 06:28:22;;;;;;;54.05;22.02;;;5.80;99.90;;;;;;5135697;27;20070;-67
2022/01/14 06:30:48;;;;;;;52.92;21.10;;;5.80;99.90;;;;;;5136077;27;20074;-67
2022/01/14 06:33:14;;;;;;;46.72;21.05;;;5.80;99.90;;;;;;5137223;27;20069;-67
2022/01/14 06:35:39;;;;;;;45.75;21.10;;;5.80;99.90;;;;;;5130443;28;20047;-68
2022/01/14 06:38:05;;;;;;;49.70;21.83;;;5.70;99.90;;;;;;5116086;28;20313;-69
2022/01/14 06:40:32;;;;;;;40.08;20.13;;;5.70;99.90;;;;;;5112614;27;20405;-68
2022/01/14 06:42:58;;;;;;;41.30;20.08;;;5.80;99.90;;;;;;5135570;27;20049;-68
2022/01/14 06:45:24;;;;;;;33.00;18.52;;;5.80;99.90;;;;;;5128697;27;20031;-67
2022/01/14 06:47:50;;;;;;;32.90;18.05;;;5.70;99.90;;;;;;5136690;27;20042;-66
2022/01/14 06:50:16;;;;;;;40.40;18.52;;;5.80;99.90;;;;;;5122790;27;20117;-66
2022/01/14 06:52:42;;;;;;;35.58;18.98;;;5.80;99.90;;;;;;5132911;27;20035;-69
2022/01/14 06:55:10;;;;;;;31.85;18.20;;;5.80;99.90;;;;;;5139197;27;20049;-69
2022/01/14 06:57:35;;;;;;;29.80;17.02;;;5.80;99.90;;;;;;5121873;27;20102;-67
2022/01/14 07:00:15;;;;;;;40.17;19.02;;;5.80;99.90;;;;;;5122553;27;20039;-67
2022/01/14 07:02:41;;;;;;;29.35;18.00;;;5.80;99.90;;;;;;5139632;27;20039;-67
2022/01/14 07:05:08;;;;;;;34.30;18.50;;;5.80;99.90;;;;;;5132516;27;20066;-68
2022/01/14 07:07:36;;;;;;;30.92;18.95;;;5.80;99.90;;;;;;5131418;27;20035;-68
2022/01/14 07:10:05;;;;;;;31.88;17.70;;;5.90;99.90;;;;;;5131762;27;20043;-67
2022/01/14 07:12:41;;;;;;;28.75;17.58;;;5.80;99.90;;;;;;5122012;27;20031;-67
2022/01/14 07:15:10;;;;;;;31.00;18.02;;;5.90;99.90;;;;;;5124388;27;20050;-67
2022/01/14 07:17:37;;;;;;;36.05;18.05;;;5.90;99.90;;;;;;5129511;27;20038;-67
2022/01/14 07:20:08;;;;;;;34.05;17.83;;;5.90;99.90;;;;;;5108792;27;20039;-67
2022/01/14 07:22:34;;;;;;;30.95;18.15;;;6.00;99.90;;;;;;5118146;27;20130;-67
2022/01/14 07:25:05;;;;;;;31.02;18.30;;;6.00;99.90;;;;;;5121042;27;20047;-68
2022/01/14 07:27:32;;;;;;;28.42;16.90;;;5.90;99.90;;;;;;5141231;27;20050;-66
2022/01/14 07:29:58;;;;;;;31.55;18.27;;;6.00;99.90;;;;;;5156449;27;20296;-68
2022/01/14 07:32:24;;;;;;;35.35;18.38;;;5.90;99.90;;;;;;5138714;27;20042;-66
2022/01/14 07:34:50;;;;;;;33.95;17.92;;;5.90;99.90;;;;;;5138726;27;20117;-69
2022/01/14 07:37:16;;;;;;;30.17;18.00;;;6.00;99.90;;;;;;5137206;27;20082;-67
2022/01/14 07:39:42;;;;;;;31.58;18.33;;;6.00;99.90;;;;;;5138638;27;20041;-68
2022/01/14 07:42:09;;;;;;;27.83;17.65;;;6.00;99.90;;;;;;5138804;27;20042;-68
2022/01/14 07:44:35;;;;;;;35.35;17.65;;;6.00;99.90;;;;;;5129615;27;20043;-68
2022/01/14 07:47:06;;;;;;;31.67;18.67;;;6.00;99.90;;;;;;5117276;27;20126;-67
2022/01/14 07:49:36;;;;;;;28.52;17.30;;;6.00;99.90;;;;;;5138495;27;20050;-67
2022/01/14 07:52:02;;;;;;;35.75;18.00;;;6.00;99.90;;;;;;5138597;27;20038;-68
2022/01/14 07:54:28;;;;;;;30.60;17.38;;;5.90;99.90;;;;;;5121611;27;20102;-69
2022/01/14 07:56:58;;;;;;;29.70;17.77;;;6.00;99.90;;;;;;5103693;27;20035;-68
2022/01/14 07:59:26;;;;;;;32.38;17.30;;;6.00;99.90;;;;;;5118024;27;20120;-67
2022/01/14 08:01:55;;;;;;;30.65;17.05;;;6.00;99.90;;;;;;5111176;27;20038;-67
2022/01/14 08:04:22;;;;;;;33.35;16.38;;;6.00;99.90;;;;;;5121158;27;20076;-68
2022/01/14 08:06:50;;;;;;;34.08;17.17;;;6.00;99.90;;;;;;5122681;27;20048;-69
2022/01/14 08:09:17;;;;;;;29.40;17.48;;;6.10;99.90;;;;;;5117398;27;20085;-68
2022/01/14 08:11:46;;;;;;;33.35;16.88;;;6.10;99.90;;;;;;5135929;27;20091;-67
2022/01/14 08:14:15;;;;;;;29.10;16.17;;;6.10;99.90;;;;;;5117362;27;20035;-69
2022/01/14 08:16:42;;;;;;;35.25;15.95;;;6.20;99.90;;;;;;5130378;27;20111;-69
2022/01/14 08:19:07;;;;;;;30.67;16.05;;;6.10;99.90;;;;;;5137859;27;20045;-68
2022/01/14 08:21:37;;;;;;;36.35;16.63;;;6.10;99.90;;;;;;5128002;27;20043;-68
2022/01/14 08:24:03;;;;;;;32.10;16.63;;;6.10;99.90;;;;;;5102733;27;20039;-68
2022/01/14 08:26:34;;;;;;;34.70;16.27;;;6.20;99.90;;;;;;5128299;27;20458;-71
2022/01/14 08:29:00;;;;;;;27.70;16.80;;;6.20;99.90;;;;;;5155928;27;20035;-67
2022/01/14 08:31:25;;;;;;;31.55;16.48;;;6.20;99.90;;;;;;5155945;27;20049;-68
2022/01/14 08:33:51;;;;;;;33.05;16.08;;;6.20;99.90;;;;;;5156183;27;20031;-67
2022/01/14 08:36:18;;;;;;;31.15;16.48;;;6.20;99.90;;;;;;5126550;27;20122;-67
2022/01/14 08:38:44;;;;;;;38.05;16.00;;;6.20;99.90;;;;;;5100189;27;20371;-67
2022/01/14 08:41:12;;;;;;;33.58;16.35;;;6.20;99.90;;;;;;5125001;27;20035;-66
2022/01/14 08:43:38;;;;;;;29.42;14.82;;;6.20;99.90;;;;;;5100094;27;20058;-67
2022/01/14 08:46:03;;;;;;;29.60;14.80;;;6.30;99.90;;;;;;5124512;27;20035;-67
2022/01/14 08:48:30;;;;;;;27.65;14.48;;;6.30;99.90;;;;;;5119994;27;20043;-68
2022/01/14 08:50:56;;;;;;;28.38;15.65;;;6.20;99.90;;;;;;5137558;27;20359;-67
2022/01/14 08:53:22;;;;;;;28.75;14.50;;;6.20;99.90;;;;;;5137320;27;20144;-67
2022/01/14 08:55:48;;;;;;;25.20;13.90;;;6.30;99.90;;;;;;5130735;27;20049;-66
2022/01/14 08:58:13;;;;;;;27.02;14.57;;;6.30;99.90;;;;;;5116912;27;20360;-68
2022/01/14 09:00:39;;;;;;;34.53;15.30;;;6.30;99.90;;;;;;5134457;27;20378;-68
2022/01/14 09:03:05;;;;;;;34.63;14.85;;;6.40;99.90;;;;;;5137072;27;20137;-68
2022/01/14 09:05:31;;;;;;;27.67;14.18;;;6.40;99.90;;;;;;5135787;27;20091;-67
2022/01/14 09:07:58;;;;;;;23.63;13.45;;;6.40;99.90;;;;;;5136875;27;20139;-67
2022/01/14 09:10:24;;;;;;;29.65;13.93;;;6.40;99.90;;;;;;5137116;27;20130;-67
2022/01/14 09:12:50;;;;;;;32.22;13.70;;;6.40;99.90;;;;;;5137099;27;20038;-67
2022/01/14 09:15:16;;;;;;;29.33;13.02;;;6.40;99.90;;;;;;5135816;27;20111;-68
2022/01/14 09:17:42;;;;;;;26.00;12.50;;;6.50;99.90;;;;;;5119530;27;20089;-68
2022/01/14 09:20:10;;;;;;;25.83;13.38;;;6.50;99.90;;;;;;5137077;27;20077;-67
2022/01/14 09:22:36;;;;;;;28.15;12.68;;;6.50;99.90;;;;;;5136915;27;20061;-67
2022/01/14 09:25:04;;;;;;;25.92;12.77;;;6.60;99.90;;;;;;5119576;27;20056;-68
2022/01/14 09:27:30;;;;;;;22.35;12.02;;;6.60;99.90;;;;;;5115990;27;20099;-67
2022/01/14 09:29:58;;;;;;;25.85;11.50;;;6.60;99.90;;;;;;5116077;28;20039;-67
2022/01/14 09:32:25;;;;;;;24.70;11.68;;;6.60;99.90;;;;;;5098944;27;20047;-67
2022/01/14 09:34:51;;;;;;;23.00;11.38;;;6.70;99.90;;;;;;5116919;27;20426;-68
2022/01/14 09:37:17;;;;;;;29.63;11.38;;;6.70;99.90;;;;;;5117531;27;20043;-68
2022/01/14 09:39:45;;;;;;;27.13;11.98;;;6.80;99.90;;;;;;5116268;27;20062;-67
2022/01/14 09:42:13;;;;;;;27.63;11.25;;;6.80;99.90;;;;;;5115871;28;20038;-67
2022/01/14 09:44:38;;;;;;;22.95;11.68;;;6.80;99.90;;;;;;5115869;27;20036;-68
2022/01/14 09:47:05;;;;;;;23.63;11.15;;;6.80;99.90;;;;;;5150031;27;20189;-67
2022/01/14 09:49:31;;;;;;;24.30;11.05;;;6.80;99.90;;;;;;5136529;27;20039;-69
2022/01/14 09:51:57;;;;;;;22.52;10.93;;;6.80;99.90;;;;;;5119230;27;20091;-66
2022/01/14 09:54:22;;;;;;;24.02;11.65;;;6.90;99.90;;;;;;5136235;27;20042;-66
2022/01/14 09:56:48;;;;;;;22.48;10.63;;;6.90;99.90;;;;;;5135330;27;20039;-66
2022/01/14 09:59:16;;;;;;;22.95;10.55;;;6.90;99.90;;;;;;5133660;27;20031;-67
2022/01/14 10:01:44;;;;;;;20.58;10.75;;;6.90;99.90;;;;;;5136068;27;20356;-67
2022/01/14 10:04:20;;;;;;;21.63;10.60;;;6.90;99.90;;;;;;5136411;27;20042;-67
2022/01/14 10:06:46;;;;;;;29.65;10.05;;;6.90;99.90;;;;;;5105066;28;20371;-66
2022/01/14 10:09:21;;;;;;;28.38;10.80;;;7.00;99.90;;;;;;5115681;28;20055;-66
2022/01/14 10:12:02;;;;;;;29.05;12.30;;;7.00;99.90;;;;;;5116001;28;20054;-65
2022/01/14 10:14:28;;;;;;;29.52;11.15;;;6.90;99.90;;;;;;5116161;28;20046;-66
2022/01/14 10:16:56;;;;;;;34.65;13.52;;;7.00;99.90;;;;;;5129593;27;20054;-66
2022/01/14 10:19:25;;;;;;;26.80;12.13;;;7.10;99.90;;;;;;5136365;27;20051;-67
2022/01/14 10:21:51;;;;;;;27.52;11.10;;;7.10;99.90;;;;;;5139870;27;20391;-64
2022/01/14 10:24:18;;;;;;;23.48;10.38;;;7.10;99.90;;;;;;5140378;27;20046;-66
2022/01/14 10:26:53;;;;;;;24.05;9.45;;;7.10;99.90;;;;;;5139155;27;20047;-66
2022/01/14 10:29:25;;;;;;;;;;;7.20;99.90;;;;;;5140764;27;20352;-67
2022/01/14 10:31:51;;;;;;;19.85;8.98;;;7.20;99.90;;;;;;5140225;27;20369;-67
2022/01/14 10:34:17;;;;;;;18.65;7.68;;;7.20;99.90;;;;;;5158893;27;20038;-66
2022/01/14 10:36:47;;;;;;;19.05;7.13;;;7.30;99.90;;;;;;5136782;27;20066;-66
2022/01/14 10:39:27;;;;;;;16.70;6.95;;;7.30;99.90;;;;;;5123213;27;20129;-67
2022/01/14 10:41:57;;;;;;;13.57;6.90;;;7.40;99.90;;;;;;5132532;27;20039;-68
2022/01/14 10:44:27;;;;;;;18.05;7.93;;;7.40;99.90;;;;;;5122889;27;20111;-66
2022/01/14 10:47:22;;;;;;;21.63;7.25;;;7.40;99.90;;;;;;5138382;27;20038;-67
2022/01/14 10:49:55;;;;;;;18.17;7.38;;;7.50;99.90;;;;;;5140178;27;20056;-66
2022/01/14 10:52:25;;;;;;;13.98;7.45;;;7.40;99.90;;;;;;5123022;27;20125;-65
2022/01/14 10:54:57;;;;;;;17.70;7.80;;;7.50;99.90;;;;;;5139957;27;20064;-66
2022/01/14 10:57:28;;;;;;;19.77;6.38;;;7.50;99.90;;;;;;5120629;27;20443;-66
2022/01/14 10:59:56;;;;;;;15.75;7.03;;;7.50;99.90;;;;;;5137271;27;20371;-67
2022/01/14 11:02:34;;;;;;;15.32;6.40;;;7.60;99.90;;;;;;5118869;27;20035;-67
2022/01/14 11:05:23;;;;;;;16.52;6.15;;;7.50;99.90;;;;;;5118954;27;20046;-67
2022/01/14 11:07:50;;;;;;;16.02;6.78;;;7.60;99.90;;;;;;5102144;27;20125;-66
2022/01/14 11:10:26;;;;;;;16.27;6.35;;;7.60;99.90;;;;;;5102008;27;20766;-65
2022/01/14 11:12:57;;;;;;;14.25;5.38;;;7.60;99.90;;;;;;5118874;27;20074;-66
2022/01/14 11:15:26;;;;;;;19.23;6.47;;;7.70;99.90;;;;;;5115854;27;20044;-66
2022/01/14 11:17:54;;;;;;;16.02;6.05;;;7.70;99.90;;;;;;5135828;27;20486;-67
2022/01/14 11:20:28;;;;;;;11.73;5.53;;;7.70;99.90;;;;;;5118818;27;20379;-67
2022/01/14 11:25:43;;;;;;;16.13;6.00;;;7.70;99.90;;;;;;5135592;27;20074;-65
2022/01/14 11:28:09;;;;;;;14.98;6.85;;;7.70;99.90;;;;;;5118441;27;20095;-66
2022/01/14 11:30:40;;;;;;;24.40;8.93;;;7.80;99.90;;;;;;5101268;27;20435;-66
2022/01/14 11:33:07;;;;;;;20.45;10.38;;;7.80;99.90;;;;;;5134185;27;20168;-67
2022/01/14 11:35:37;;;;;;;30.08;11.70;;;7.70;99.90;;;;;;5113761;27;20043;-67
2022/01/14 11:38:35;;;;;;;25.05;11.80;;;7.80;99.90;;;;;;5135483;27;20039;-66
2022/01/14 11:41:01;;;;;;;31.70;12.55;;;7.80;99.90;;;;;;5118337;27;20053;-66
2022/01/14 11:43:42;;;;;;;24.65;11.10;;;7.70;99.90;;;;;;5135423;27;20039;-66
2022/01/14 11:46:13;;;;;;;23.80;9.68;;;7.80;99.90;;;;;;5127160;27;20089;-67
2022/01/14 11:48:49;;;;;;;25.50;11.85;;;7.80;99.90;;;;;;5097602;28;20325;-66
2022/01/14 11:51:17;;;;;;;16.48;7.75;;;7.80;99.90;;;;;;5114888;28;20040;-68
2022/01/14 11:53:48;;;;;;;16.38;6.50;;;7.80;99.90;;;;;;5097555;28;20036;-66
2022/01/14 11:56:44;;;;;;;10.65;4.10;;;7.70;99.90;;;;;;5131997;27;20043;-66
2022/01/14 11:59:20;;;;;;;18.52;4.97;;;7.70;99.90;;;;;;5122652;27;20058;-66
2022/01/14 12:01:52;;;;;;;14.13;4.35;;;7.70;99.90;;;;;;5136059;27;20050;-67
2022/01/14 12:04:18;;;;;;;12.02;4.15;;;7.70;99.90;;;;;;5117940;27;20035;-67
2022/01/14 12:06:54;;;;;;;13.18;4.75;;;7.70;99.90;;;;;;5104709;28;20040;-66
2022/01/14 12:09:24;;;;;;;12.60;4.55;;;7.70;99.90;;;;;;5097233;28;20046;-66
2022/01/14 12:12:27;;;;;;;14.80;4.47;;;7.70;99.90;;;;;;5090606;27;20111;-67
2022/01/14 12:15:01;;;;;;;15.75;4.30;;;7.70;99.90;;;;;;5099255;27;20456;-66
2022/01/14 12:17:41;;;;;;;15.15;4.63;;;7.60;99.90;;;;;;5136372;27;20056;-67
2022/01/14 12:20:17;;;;;;;10.20;4.43;;;7.60;99.90;;;;;;5155799;27;20123;-67
2022/01/14 12:23:06;;;;;;;10.20;4.47;;;7.60;99.90;;;;;;5137915;27;20513;-66
2022/01/14 12:25:39;;;;;;;15.05;4.95;;;7.60;99.90;;;;;;5135372;27;20113;-66
2022/01/14 12:28:29;;;;;;;14.00;4.38;;;7.60;99.90;;;;;;5117580;27;20413;-65
2022/01/14 12:31:01;;;;;;;15.45;4.50;;;7.70;99.90;;;;;;5132769;27;20080;-67
2022/01/14 12:33:44;;;;;;;12.93;4.10;;;7.60;99.90;;;;;;5101200;27;20031;-67
2022/01/14 12:36:10;;;;;;;16.45;5.40;;;7.70;99.90;;;;;;5150645;27;20461;-65
2022/01/14 12:38:39;;;;;;;13.77;4.78;;;7.70;99.90;;;;;;5155651;27;20038;-67
2022/01/14 12:41:12;;;;;;;11.57;4.30;;;7.70;99.90;;;;;;5136285;27;20103;-67
2022/01/14 12:43:57;;;;;;;10.68;3.88;;;7.70;99.90;;;;;;5136776;27;20035;-67
2022/01/14 12:46:45;;;;;;;10.02;4.13;;;7.70;99.90;;;;;;5154604;27;20035;-67
2022/01/14 12:49:16;;;;;;;12.88;4.10;;;7.70;99.90;;;;;;5137101;27;20047;-67
2022/01/14 12:51:41;;;;;;;15.98;4.10;;;7.60;99.90;;;;;;5137364;27;20042;-66
2022/01/14 12:54:09;;;;;;;16.08;4.03;;;7.60;99.90;;;;;;5120077;27;20092;-68
2022/01/14 12:56:37;;;;;;;11.40;4.13;;;7.70;99.90;;;;;;5108819;27;20068;-67
2022/01/14 12:59:10;;;;;;;12.88;4.10;;;7.60;99.90;;;;;;5116617;27;20293;-67
2022/01/14 13:01:39;;;;;;;12.40;4.18;;;7.60;99.90;;;;;;5116403;27;20085;-66
2022/01/14 13:04:11;;;;;;;15.18;4.40;;;7.60;99.90;;;;;;5116842;27;20043;-65
2022/01/14 13:06:56;;;;;;;13.05;4.22;;;7.70;99.90;;;;;;5126907;27;20447;-67
2022/01/14 13:09:30;;;;;;;11.20;3.72;;;7.60;99.90;;;;;;5137219;27;20466;-66
2022/01/14 13:12:14;;;;;;;11.10;4.18;;;7.60;99.90;;;;;;5155855;27;20039;-67
2022/01/14 13:14:48;;;;;;;10.68;4.07;;;7.60;99.90;;;;;;5155586;27;20035;-66